Port Hueneme, California
Current Conditions -  °F | °C
As of 9:51 AM on Wednesday 28 Jan 2015 (Local Time) from KOXR Reporting Station
Clear Clear  
Wind Chill: 66°   Ceiling: Unl
Heat Index: 66°   Visibility: 10mi
Dew Point: 51°   Wind: 5mph
Humidity: 59%   Direction: 60°ENE
Pressure: 30.15"   Gusts: NA
Location:  34.15°N, 119.19°W
Report Text: KOXR 281751Z 06004KT 10SM CLR 19/11 A3015 RMK AO2 SLP207 T01890106 10189 20144 50001
Loading
Personal Weather Stations






























Interactive Weather Map New forecast layout! Learn more

10-Day Weather Forecast

Advertisements
Track Severe Weather on mobile